createdAt,value
2017-08-17T05:04:03.168Z,78.6
2017-08-17T05:05:04.580Z,79.1
2017-08-17T05:06:26.098Z,79.3
2017-08-17T05:07:27.523Z,80.0
2017-08-17T05:08:49.016Z,79.9
2017-08-17T05:09:50.431Z,79.7
2017-08-17T05:11:11.953Z,79.6
2017-08-17T05:12:13.370Z,79.6
2017-08-17T05:13:34.880Z,79.0
2017-08-17T05:14:36.293Z,78.7
2017-08-17T05:15:57.798Z,78.3
2017-08-17T05:16:59.212Z,77.5
2017-08-17T05:18:20.737Z,77.4
2017-08-17T05:19:22.152Z,77.4
2017-08-17T05:20:43.659Z,77.9
2017-08-17T05:21:45.072Z,77.7
2017-08-17T05:23:06.594Z,78.0
2017-08-17T05:24:08.012Z,77.8
2017-08-17T05:25:29.518Z,77.8
2017-08-17T05:26:30.934Z,77.6
2017-08-17T05:27:52.460Z,76.9
2017-08-17T05:28:53.875Z,77.5
2017-08-17T05:30:16.375Z,77.4
2017-08-17T05:31:17.794Z,77.5
2017-08-17T05:32:39.320Z,76.8
2017-08-17T05:33:40.734Z,76.4
2017-08-17T05:35:02.240Z,75.6
2017-08-17T05:36:03.657Z,75.3
2017-08-17T05:37:25.185Z,74.6
2017-08-17T05:38:26.598Z,74.5
2017-08-17T05:39:48.102Z,74.4
2017-08-17T05:40:49.519Z,74.5
2017-08-17T05:42:11.043Z,74.5
2017-08-17T05:43:12.462Z,74.5
2017-08-17T05:44:33.968Z,74.2
2017-08-17T05:45:35.386Z,73.4
2017-08-17T05:46:56.914Z,73.6
2017-08-17T05:47:58.331Z,73.5
2017-08-17T05:49:19.841Z,73.3
2017-08-17T05:50:21.257Z,73.6
2017-08-17T05:51:42.779Z,74.1
2017-08-17T05:52:44.197Z,73.9
2017-08-17T05:54:05.697Z,73.2
2017-08-17T05:55:07.115Z,73.2
2017-08-17T05:56:28.634Z,73.1
2017-08-17T05:57:30.053Z,72.5
2017-08-17T05:58:51.559Z,72.7
2017-08-17T05:59:52.976Z,72.5
2017-08-17T06:01:14.481Z,72.0
2017-08-17T06:02:15.900Z,71.2
2017-08-17T06:03:37.423Z,71.3
2017-08-17T06:04:38.844Z,71.7
2017-08-17T06:06:00.560Z,71.4
2017-08-17T06:07:01.978Z,70.7
2017-08-17T06:08:23.514Z,70.3
2017-08-17T06:09:24.924Z,69.8
2017-08-17T06:10:46.433Z,68.6
2017-08-17T06:11:47.850Z,67.2
2017-08-17T06:13:09.376Z,66.4
2017-08-17T06:14:10.798Z,65.7
2017-08-17T06:15:32.307Z,64.7
2017-08-17T06:16:33.727Z,63.5
2017-08-17T06:17:55.259Z,62.1
2017-08-17T06:18:56.680Z,60.9
2017-08-17T06:20:18.201Z,60.0
2017-08-17T06:21:19.619Z,59.1
2017-08-17T06:22:41.162Z,60.0
2017-08-17T06:23:42.584Z,59.9
2017-08-17T06:25:04.095Z,58.9
2017-08-17T06:26:05.513Z,58.5
2017-08-17T06:27:27.045Z,58.6
2017-08-17T06:28:28.466Z,58.4
2017-08-17T06:29:49.981Z,58.0
2017-08-17T06:30:51.401Z,57.1
2017-08-17T06:32:12.929Z,58.4
2017-08-17T06:33:14.350Z,58.9
2017-08-17T06:34:35.866Z,57.7
2017-08-17T06:35:37.285Z,57.8
2017-08-17T06:36:58.820Z,58.9
2017-08-17T06:38:00.238Z,58.1
2017-08-17T06:39:21.753Z,58.7
2017-08-17T06:40:23.177Z,58.0
2017-08-17T06:41:44.705Z,57.7
2017-08-17T06:42:46.127Z,58.0
2017-08-17T06:44:07.638Z,57.6
2017-08-17T06:45:09.060Z,58.6
2017-08-17T06:46:30.572Z,60.5
2017-08-17T06:47:31.994Z,60.0
2017-08-17T06:48:53.527Z,59.4
2017-08-17T06:49:54.946Z,60.3
2017-08-17T06:51:16.458Z,59.9
2017-08-17T06:52:17.879Z,60.2
2017-08-17T06:53:39.415Z,60.0
2017-08-17T06:54:40.837Z,60.5
2017-08-17T06:56:02.352Z,60.3
2017-08-17T06:57:03.769Z,60.6
2017-08-17T06:58:25.300Z,60.9
2017-08-17T06:59:26.722Z,60.5
2017-08-17T07:00:48.234Z,60.7
2017-08-17T07:01:49.654Z,60.5
2017-08-17T07:03:11.183Z,60.7
2017-08-17T07:04:12.605Z,60.4
2017-08-17T07:05:34.127Z,60.6
2017-08-17T07:06:35.549Z,61.3
2017-08-17T07:07:57.078Z,60.9
2017-08-17T07:08:58.500Z,61.7
2017-08-17T07:10:20.011Z,61.5
2017-08-17T07:11:21.431Z,61.6
2017-08-17T07:12:42.964Z,61.5
2017-08-17T07:13:44.394Z,61.7
2017-08-17T07:15:05.907Z,62.4
2017-08-17T07:16:07.325Z,62.4
2017-08-17T07:17:28.856Z,62.2
2017-08-17T07:18:30.275Z,61.9
2017-08-17T07:19:51.787Z,61.7
2017-08-17T07:20:53.211Z,61.6
2017-08-17T07:22:14.736Z,61.5
2017-08-17T07:23:16.158Z,61.6
2017-08-17T07:24:37.668Z,62.0
2017-08-17T07:25:39.090Z,61.6
2017-08-17T07:27:00.803Z,61.6
2017-08-17T07:28:02.225Z,61.8
2017-08-17T07:29:23.738Z,60.6
2017-08-17T07:30:25.160Z,60.7
2017-08-17T07:31:46.670Z,60.4
2017-08-17T07:32:48.092Z,59.8
2017-08-17T07:34:09.620Z,60.7
2017-08-17T07:35:11.048Z,59.8
2017-08-17T07:36:32.553Z,60.7
2017-08-17T07:37:33.975Z,59.7
2017-08-17T07:38:55.514Z,58.6
2017-08-17T07:39:56.930Z,58.6
2017-08-17T07:41:18.441Z,58.5
2017-08-17T07:42:19.861Z,58.4
2017-08-17T07:43:41.392Z,56.9
2017-08-17T07:44:42.815Z,57.6
2017-08-17T07:46:04.329Z,56.4
2017-08-17T07:47:05.749Z,55.7
2017-08-17T07:48:27.282Z,55.8
2017-08-17T07:49:28.709Z,55.4
2017-08-17T07:50:50.390Z,55.5
2017-08-17T07:51:51.811Z,55.6
2017-08-17T07:53:13.344Z,54.7
2017-08-17T07:54:14.767Z,54.6
2017-08-17T07:55:36.286Z,55.0
2017-08-17T07:56:37.708Z,54.8
2017-08-17T07:57:59.239Z,53.2
2017-08-17T07:59:00.662Z,53.8
2017-08-17T08:00:22.176Z,53.9
2017-08-17T08:01:23.598Z,52.7
2017-08-17T08:02:45.132Z,51.8
2017-08-17T08:03:46.557Z,53.6
2017-08-17T08:05:08.073Z,54.4
2017-08-17T08:06:09.495Z,53.9
2017-08-17T08:07:31.032Z,53.2
2017-08-17T08:08:32.456Z,52.7
2017-08-17T08:09:53.971Z,52.3
2017-08-17T08:10:55.394Z,53.5
2017-08-17T08:12:16.928Z,52.7
2017-08-17T08:13:18.352Z,52.3
2017-08-17T08:14:39.870Z,52.3
2017-08-17T08:15:41.294Z,52.6
2017-08-17T08:17:02.813Z,51.8
2017-08-17T08:18:04.237Z,51.7
2017-08-17T08:19:26.265Z,51.2
2017-08-17T08:20:27.685Z,51.4
2017-08-17T08:21:49.198Z,51.5
2017-08-17T08:22:50.632Z,51.0
2017-08-17T08:24:12.156Z,51.1
2017-08-17T08:25:13.582Z,51.4
2017-08-17T08:26:35.099Z,51.2
2017-08-17T08:27:36.523Z,50.9
2017-08-17T08:28:58.057Z,50.5
2017-08-17T08:29:59.483Z,50.7
2017-08-17T08:31:21.003Z,50.9
2017-08-17T08:32:22.426Z,51.2
2017-08-17T08:33:43.962Z,51.2
2017-08-17T08:34:45.387Z,51.0
2017-08-17T08:36:06.901Z,51.2
2017-08-17T08:37:08.327Z,50.3
2017-08-17T08:38:29.860Z,49.9
2017-08-17T08:39:31.283Z,50.3
2017-08-17T08:40:52.803Z,50.1
2017-08-17T08:41:54.230Z,49.9
2017-08-17T08:43:15.760Z,50.0
2017-08-17T08:44:17.186Z,50.2
2017-08-17T08:45:38.704Z,49.9
2017-08-17T08:46:40.131Z,49.6
2017-08-17T08:48:02.037Z,50.3
2017-08-17T08:49:03.612Z,49.4
2017-08-17T08:50:25.130Z,50.0
2017-08-17T08:51:26.552Z,50.2
2017-08-17T08:52:48.086Z,50.0
2017-08-17T08:53:49.512Z,48.8
2017-08-17T08:55:11.036Z,47.9
2017-08-17T08:56:12.460Z,49.0
2017-08-17T08:57:33.993Z,47.7
2017-08-17T08:58:35.418Z,47.1
2017-08-17T08:59:56.938Z,46.2
2017-08-17T09:00:58.361Z,47.2
2017-08-17T09:02:19.893Z,46.3
2017-08-17T09:03:21.317Z,46.4
2017-08-17T09:04:42.860Z,47.3
2017-08-17T09:05:44.283Z,47.1
2017-08-17T09:07:05.801Z,47.1
2017-08-17T09:08:07.252Z,46.1
2017-08-17T09:09:29.280Z,46.2
2017-08-17T09:10:30.708Z,47.1
2017-08-17T09:11:52.233Z,45.9
2017-08-17T09:12:53.659Z,46.5
2017-08-17T09:14:15.335Z,46.1
2017-08-17T09:15:16.757Z,46.2
2017-08-17T09:16:38.478Z,46.0
2017-08-17T09:17:39.899Z,45.8
2017-08-17T09:19:01.432Z,46.3
2017-08-17T09:20:02.861Z,46.0
2017-08-17T09:21:24.382Z,45.9
2017-08-17T09:22:25.805Z,46.3
2017-08-17T09:23:47.342Z,46.0
2017-08-17T09:24:48.798Z,45.3
2017-08-17T09:26:10.316Z,45.1
2017-08-17T09:27:11.742Z,45.1
2017-08-17T09:28:33.277Z,45.0
2017-08-17T09:29:34.703Z,45.0
2017-08-17T09:30:56.221Z,44.9
2017-08-17T09:31:57.643Z,45.2
2017-08-17T09:33:19.218Z,45.2
2017-08-17T09:34:20.649Z,45.2
2017-08-17T09:35:42.173Z,44.5
2017-08-17T09:36:43.612Z,44.6
2017-08-17T09:38:05.155Z,44.6
2017-08-17T09:39:06.583Z,44.9
2017-08-17T09:40:28.101Z,45.2
2017-08-17T09:41:29.527Z,45.1
2017-08-17T09:42:51.063Z,46.1
2017-08-17T09:43:52.500Z,45.9
2017-08-17T09:45:14.021Z,46.1
2017-08-17T09:46:15.444Z,46.0
2017-08-17T09:47:37.010Z,45.8
2017-08-17T09:48:38.448Z,46.4
2017-08-17T09:50:00.300Z,46.1
2017-08-17T09:51:01.749Z,45.3
2017-08-17T09:52:23.263Z,45.2
2017-08-17T09:53:24.708Z,46.0
2017-08-17T09:54:46.428Z,45.1
2017-08-17T09:55:48.208Z,44.8
2017-08-17T09:57:11.279Z,45.0
2017-08-17T09:58:12.862Z,45.6
2017-08-17T09:59:34.383Z,45.3
2017-08-17T10:00:35.807Z,44.0
2017-08-17T10:01:58.322Z,44.0
2017-08-17T10:02:59.757Z,44.6
2017-08-17T10:04:21.301Z,44.6
2017-08-17T10:05:22.718Z,44.5
2017-08-17T10:06:44.242Z,44.4
2017-08-17T10:07:45.670Z,44.8
2017-08-17T10:09:07.211Z,44.9
2017-08-17T10:10:08.639Z,43.6
2017-08-17T10:11:30.160Z,44.6
2017-08-17T10:12:31.582Z,44.7
2017-08-17T10:13:53.119Z,44.4
2017-08-17T10:14:54.591Z,44.1
2017-08-17T10:16:16.190Z,43.5
2017-08-17T10:17:17.800Z,43.3
2017-08-17T10:18:39.534Z,43.6
2017-08-17T10:19:40.990Z,43.7
2017-08-17T10:21:02.523Z,43.7
2017-08-17T10:22:04.022Z,43.6
2017-08-17T10:23:25.574Z,44.4
2017-08-17T10:24:27.285Z,43.5
2017-08-17T10:25:48.804Z,43.6
2017-08-17T10:26:50.244Z,43.7
2017-08-17T10:28:11.822Z,42.7
2017-08-17T10:29:13.365Z,43.7
2017-08-17T10:30:35.878Z,43.3
2017-08-17T10:31:37.300Z,43.8
2017-08-17T10:32:58.929Z,43.2
2017-08-17T10:34:00.353Z,44.3
2017-08-17T10:35:21.874Z,45.0
2017-08-17T10:36:23.299Z,45.1
2017-08-17T10:37:44.836Z,45.1
2017-08-17T10:38:46.261Z,44.6
2017-08-17T10:40:07.851Z,43.0
2017-08-17T10:41:09.280Z,43.3
2017-08-17T10:42:30.859Z,44.0
2017-08-17T10:43:32.492Z,44.2
2017-08-17T10:44:54.078Z,44.7
2017-08-17T10:45:55.592Z,44.7
2017-08-17T10:47:17.107Z,44.7
2017-08-17T10:48:18.531Z,44.3
2017-08-17T10:49:40.086Z,44.3
2017-08-17T10:50:41.504Z,43.5
2017-08-17T10:52:03.832Z,43.9
2017-08-17T10:53:05.256Z,44.2
2017-08-17T10:54:26.793Z,43.0
2017-08-17T10:55:28.266Z,44.1
2017-08-17T10:56:49.783Z,43.6
2017-08-17T10:57:51.210Z,44.0
2017-08-17T10:59:12.763Z,45.4
2017-08-17T11:00:14.398Z,44.9
2017-08-17T11:01:36.304Z,45.4
2017-08-17T11:02:37.962Z,45.3
2017-08-17T11:03:59.579Z,45.3
2017-08-17T11:05:00.999Z,45.3
2017-08-17T11:06:22.511Z,45.3
2017-08-17T11:07:23.968Z,45.7
2017-08-17T11:08:45.548Z,45.0
2017-08-17T11:09:46.975Z,45.3
2017-08-17T11:11:08.722Z,45.0
2017-08-17T11:12:11.074Z,45.5
2017-08-17T11:13:32.620Z,45.6
2017-08-17T11:14:34.078Z,45.9
2017-08-17T11:15:55.594Z,45.5
2017-08-17T11:16:57.048Z,45.8
2017-08-17T11:18:18.633Z,47.3
2017-08-17T11:19:20.260Z,47.2
2017-08-17T11:20:41.830Z,47.2
2017-08-17T11:21:43.291Z,47.3
2017-08-17T11:23:05.053Z,46.7
2017-08-17T11:24:06.473Z,46.0
2017-08-17T11:25:27.993Z,45.8
2017-08-17T11:26:29.417Z,46.4
2017-08-17T11:27:51.188Z,46.1
2017-08-17T11:28:52.662Z,47.0
2017-08-17T11:30:14.969Z,47.3
2017-08-17T11:31:16.390Z,47.1
2017-08-17T11:32:37.905Z,47.3
2017-08-17T11:33:39.331Z,47.9
2017-08-17T11:35:00.869Z,47.7
2017-08-17T11:36:02.290Z,48.1
2017-08-17T11:37:24.108Z,47.6
2017-08-17T11:38:25.533Z,47.6
2017-08-17T11:39:47.065Z,47.3
2017-08-17T11:40:48.491Z,47.2
2017-08-17T11:42:10.004Z,48.0
2017-08-17T11:43:11.429Z,48.1
2017-08-17T11:44:32.960Z,48.9
2017-08-17T11:45:34.388Z,48.3
2017-08-17T11:46:55.906Z,48.1
2017-08-17T11:47:59.421Z,48.9
2017-08-17T11:49:20.962Z,47.4
2017-08-17T11:50:22.389Z,46.8
2017-08-17T11:51:43.909Z,47.1
2017-08-17T11:52:45.337Z,47.1
2017-08-17T11:54:06.874Z,48.2
2017-08-17T11:55:08.299Z,48.6
2017-08-17T11:56:29.992Z,48.6
2017-08-17T11:57:31.414Z,48.2
2017-08-17T11:58:52.956Z,49.6
2017-08-17T11:59:54.381Z,50.5
2017-08-17T12:01:15.896Z,51.5
2017-08-17T12:02:17.424Z,52.6
2017-08-17T12:03:38.960Z,51.5
2017-08-17T12:04:40.382Z,51.2
2017-08-17T12:06:01.903Z,51.5
2017-08-17T12:07:03.327Z,50.5
2017-08-17T12:08:24.869Z,49.8
2017-08-17T12:09:26.296Z,48.9
2017-08-17T12:10:47.811Z,48.8
2017-08-17T12:11:49.238Z,48.6
2017-08-17T12:13:10.776Z,47.7
2017-08-17T12:14:12.203Z,47.2
2017-08-17T12:15:33.724Z,47.2
2017-08-17T12:16:35.148Z,48.1
2017-08-17T12:17:56.666Z,47.7
2017-08-17T12:18:58.092Z,47.6
2017-08-17T12:20:19.631Z,47.2
2017-08-17T12:21:21.055Z,47.8
2017-08-17T12:22:42.577Z,48.0
2017-08-17T12:23:43.999Z,47.2
2017-08-17T12:25:05.537Z,48.2
2017-08-17T12:26:06.962Z,47.8
2017-08-17T12:27:28.481Z,48.4
2017-08-17T12:28:29.905Z,48.3
2017-08-17T12:29:51.443Z,48.3
2017-08-17T12:30:52.867Z,47.2
2017-08-17T12:32:14.387Z,47.0
2017-08-17T12:33:15.812Z,47.4
2017-08-17T12:34:37.350Z,47.3
2017-08-17T12:35:38.775Z,47.3
2017-08-17T12:37:00.292Z,46.2
2017-08-17T12:38:01.717Z,46.4
2017-08-17T12:39:23.255Z,47.1
2017-08-17T12:40:24.678Z,47.0
2017-08-17T12:41:46.194Z,46.5
2017-08-17T12:42:47.618Z,47.1
2017-08-17T12:44:09.154Z,47.1
2017-08-17T12:45:10.579Z,47.2
2017-08-17T12:46:32.097Z,48.5
2017-08-17T12:47:33.523Z,47.2
2017-08-17T12:48:55.061Z,48.6
2017-08-17T12:49:56.485Z,47.8
2017-08-17T12:51:18.002Z,47.2
2017-08-17T12:52:19.427Z,46.7
2017-08-17T12:53:40.965Z,46.5
2017-08-17T12:54:42.388Z,47.1
2017-08-17T12:56:03.908Z,45.9
2017-08-17T12:57:05.332Z,46.0
2017-08-17T12:58:26.870Z,45.3
2017-08-17T12:59:28.294Z,45.6
2017-08-17T13:00:49.813Z,45.1
2017-08-17T13:01:51.252Z,44.9
2017-08-17T13:03:12.757Z,46.1
2017-08-17T13:04:14.183Z,45.1
2017-08-17T13:05:35.717Z,45.1
2017-08-17T13:06:37.141Z,45.0
2017-08-17T13:07:58.660Z,45.3
2017-08-17T13:09:00.092Z,46.1
2017-08-17T13:10:21.624Z,45.3
2017-08-17T13:11:23.046Z,45.5
2017-08-17T13:12:44.567Z,44.9
2017-08-17T13:13:45.992Z,44.9
2017-08-17T13:15:07.527Z,45.3
2017-08-17T13:16:08.952Z,45.6
2017-08-17T13:17:30.471Z,45.1
2017-08-17T13:18:31.896Z,45.1
2017-08-17T13:19:53.431Z,45.0
2017-08-17T13:20:54.854Z,45.0
2017-08-17T13:22:16.374Z,45.2
2017-08-17T13:23:17.795Z,44.9
2017-08-17T13:24:39.331Z,45.1
2017-08-17T13:25:40.756Z,45.6
2017-08-17T13:27:02.275Z,45.3
2017-08-17T13:28:03.699Z,45.2
2017-08-17T13:29:25.231Z,45.5
2017-08-17T13:30:26.655Z,45.2
2017-08-17T13:31:48.174Z,45.5
2017-08-17T13:32:49.596Z,45.9
2017-08-17T13:34:11.132Z,47.3
2017-08-17T13:35:12.556Z,47.5
2017-08-17T13:36:34.069Z,48.0
2017-08-17T13:37:35.493Z,48.8
2017-08-17T13:38:57.030Z,48.7
2017-08-17T13:39:58.452Z,48.8
2017-08-17T13:41:19.971Z,49.2
2017-08-17T13:42:21.391Z,50.2
2017-08-17T13:43:42.922Z,49.9
2017-08-17T13:44:44.346Z,51.7
2017-08-17T13:46:05.866Z,52.1
2017-08-17T13:47:07.288Z,52.3
2017-08-17T13:48:28.803Z,52.8
2017-08-17T13:50:09.713Z,52.5
2017-08-17T13:51:11.137Z,52.8
2017-08-17T13:52:32.651Z,53.8
2017-08-17T13:53:34.073Z,53.1
2017-08-17T13:54:55.603Z,53.1
2017-08-17T13:55:57.026Z,53.6
2017-08-17T13:57:18.543Z,53.4
2017-08-17T13:58:19.965Z,53.9
2017-08-17T13:59:41.496Z,53.6
2017-08-17T14:00:42.920Z,53.4
2017-08-17T14:02:04.436Z,52.7
2017-08-17T14:03:05.857Z,52.4
2017-08-17T14:04:27.393Z,52.2
2017-08-17T14:05:28.816Z,51.6
2017-08-17T14:06:50.332Z,51.2
2017-08-17T14:07:51.750Z,51.6
2017-08-17T14:09:13.288Z,51.6
2017-08-17T14:10:14.710Z,51.4
2017-08-17T14:11:36.228Z,52.3
2017-08-17T14:12:37.649Z,54.1
2017-08-17T14:13:59.186Z,55.8
2017-08-17T14:15:01.235Z,56.3
2017-08-17T14:16:22.752Z,55.2
2017-08-17T14:17:24.232Z,55.4
2017-08-17T14:18:45.758Z,57.2
2017-08-17T14:19:47.221Z,55.7
2017-08-17T14:21:08.702Z,56.0
2017-08-17T14:22:10.154Z,56.7
2017-08-17T14:23:31.669Z,56.2
2017-08-17T14:24:33.092Z,55.8
2017-08-17T14:25:54.634Z,56.9
2017-08-17T14:26:56.057Z,56.9
2017-08-17T14:28:17.573Z,57.3
2017-08-17T14:29:19.000Z,58.1
2017-08-17T14:30:40.529Z,57.1
2017-08-17T14:31:41.949Z,58.3
2017-08-17T14:33:03.962Z,58.2
2017-08-17T14:34:05.379Z,58.7
2017-08-17T14:35:26.916Z,58.7
2017-08-17T14:36:28.334Z,58.9
2017-08-17T14:37:49.848Z,58.3
2017-08-17T14:38:51.268Z,58.0
2017-08-17T14:40:12.801Z,58.6
2017-08-17T14:41:14.219Z,58.5
2017-08-17T14:42:35.734Z,59.5
2017-08-17T14:43:37.154Z,59.7
2017-08-17T14:44:58.687Z,59.8
2017-08-17T14:46:00.104Z,60.9
2017-08-17T14:47:21.616Z,60.6
2017-08-17T14:48:23.037Z,60.5
2017-08-17T14:49:44.569Z,60.9
2017-08-17T14:50:45.989Z,61.6
2017-08-17T14:52:07.509Z,60.8
2017-08-17T14:53:08.928Z,61.4
2017-08-17T14:54:30.488Z,60.7
2017-08-17T14:55:31.907Z,61.6
2017-08-17T14:56:53.425Z,62.1
2017-08-17T14:57:54.845Z,61.9
2017-08-17T14:59:16.381Z,62.2
2017-08-17T15:00:17.803Z,62.5
2017-08-17T15:01:39.322Z,62.0
2017-08-17T15:02:40.741Z,62.0
2017-08-17T15:04:02.781Z,62.3
2017-08-17T15:05:04.204Z,62.3
2017-08-17T15:06:25.724Z,62.2
2017-08-17T15:07:27.153Z,62.1
2017-08-17T15:08:48.669Z,62.7
2017-08-17T15:09:50.089Z,62.8
2017-08-17T15:11:11.623Z,62.6
2017-08-17T15:12:13.049Z,63.4
2017-08-17T15:13:34.565Z,62.7
2017-08-17T15:14:35.975Z,63.7
2017-08-17T15:15:57.515Z,63.4
2017-08-17T15:16:58.935Z,62.7
2017-08-17T15:18:20.547Z,63.7
2017-08-17T15:19:21.988Z,63.2
2017-08-17T15:20:46.657Z,63.3
2017-08-17T20:51:29.897Z,69.5
2017-08-17T20:52:31.308Z,69.5
2017-08-17T20:53:53.833Z,69.8
2017-08-17T20:54:55.292Z,69.6
2017-08-17T20:56:16.802Z,69.9
2017-08-17T20:57:18.287Z,69.8
2017-08-17T20:58:39.815Z,69.5
2017-08-17T20:59:41.231Z,70.0
2017-08-17T21:01:03.878Z,70.0
2017-08-17T21:02:05.304Z,70.1
2017-08-17T21:03:26.855Z,70.0
2017-08-17T21:04:28.267Z,70.3
2017-08-17T21:05:49.774Z,70.7
2017-08-17T21:06:51.188Z,70.6
2017-08-17T21:08:12.718Z,70.4
2017-08-17T21:09:14.145Z,70.3
2017-08-17T21:10:35.879Z,70.2
2017-08-17T21:11:37.307Z,70.4
2017-08-17T21:12:58.861Z,70.5
2017-08-17T21:14:00.289Z,70.3
2017-08-17T21:15:22.911Z,70.1
2017-08-17T21:16:24.330Z,70.6
2017-08-17T21:17:45.859Z,70.8
2017-08-17T21:18:47.282Z,70.6
2017-08-17T21:20:09.271Z,70.7
2017-08-17T21:21:11.426Z,70.8
2017-08-17T21:22:32.910Z,70.8
2017-08-17T21:23:34.323Z,71.0
2017-08-17T21:24:55.831Z,70.9
2017-08-17T21:25:57.273Z,71.3
2017-08-17T21:27:18.803Z,70.9
2017-08-17T21:28:20.217Z,71.2
2017-08-17T21:29:41.727Z,71.2
2017-08-17T21:30:43.137Z,70.8
2017-08-17T21:32:04.662Z,71.2
2017-08-17T21:33:06.080Z,70.3
2017-08-17T21:34:27.619Z,70.5
2017-08-17T21:35:29.032Z,70.4
2017-08-17T21:36:50.540Z,70.2
2017-08-17T21:37:51.954Z,70.2
2017-08-17T21:39:13.482Z,70.5
2017-08-17T21:40:15.024Z,70.2
2017-08-17T21:41:37.532Z,70.4
2017-08-17T21:42:38.951Z,70.6
2017-08-17T21:44:00.479Z,70.5
2017-08-17T21:45:01.897Z,70.5
2017-08-17T21:46:23.399Z,71.1
2017-08-17T21:47:24.813Z,70.8
2017-08-17T21:48:46.829Z,71.3
2017-08-17T21:49:48.243Z,71.0
2017-08-17T21:51:09.754Z,71.3
2017-08-17T21:52:11.164Z,71.9
2017-08-17T21:53:33.183Z,71.8
2017-08-17T21:54:34.597Z,71.5
2017-08-17T21:55:56.102Z,72.4
2017-08-17T21:56:57.515Z,71.9
2017-08-17T21:58:19.055Z,71.9
2017-08-17T21:59:20.467Z,71.9
2017-08-17T22:00:41.974Z,72.0
2017-08-17T22:01:43.465Z,72.5
2017-08-17T22:03:05.716Z,71.9
2017-08-17T22:04:07.129Z,71.7
2017-08-17T22:05:28.657Z,72.6
2017-08-17T22:06:30.069Z,73.0
2017-08-17T22:07:52.154Z,72.8
2017-08-17T22:08:53.705Z,72.5
2017-08-17T22:10:15.232Z,72.5
2017-08-17T22:11:16.663Z,72.9
2017-08-17T22:12:38.196Z,72.5
2017-08-17T22:13:39.606Z,72.6
2017-08-17T22:15:01.315Z,72.8
2017-08-17T22:16:02.730Z,73.5
2017-08-17T22:17:24.798Z,73.5
2017-08-17T22:18:26.211Z,73.2
2017-08-17T22:19:47.738Z,72.9
